sensor_id;sensor_type;location;lat;lon;timestamp;P1;durP1;ratioP1;P2;durP2;ratioP2
33160;SDS011;19522;45.656;11.302;2024-02-16T00:00:59;37.70;;;23.05;;
33160;SDS011;19522;45.656;11.302;2024-02-16T00:03:25;33.28;;;22.40;;
33160;SDS011;19522;45.656;11.302;2024-02-16T00:05:51;33.90;;;21.17;;
33160;SDS011;19522;45.656;11.302;2024-02-16T00:08:17;33.50;;;20.25;;
33160;SDS011;19522;45.656;11.302;2024-02-16T00:10:43;30.80;;;18.90;;
33160;SDS011;19522;45.656;11.302;2024-02-16T00:13:09;30.75;;;19.15;;
33160;SDS011;19522;45.656;11.302;2024-02-16T00:15:35;27.45;;;19.13;;
33160;SDS011;19522;45.656;11.302;2024-02-16T00:18:00;32.35;;;19.98;;
33160;SDS011;19522;45.656;11.302;2024-02-16T00:20:26;30.20;;;19.55;;
33160;SDS011;19522;45.656;11.302;2024-02-16T00:22:51;33.58;;;19.35;;
33160;SDS011;19522;45.656;11.302;2024-02-16T00:25:17;27.75;;;17.63;;
33160;SDS011;19522;45.656;11.302;2024-02-16T00:27:43;34.17;;;18.63;;
33160;SDS011;19522;45.656;11.302;2024-02-16T00:30:11;34.95;;;20.15;;
33160;SDS011;19522;45.656;11.302;2024-02-16T00:32:40;33.25;;;19.48;;
33160;SDS011;19522;45.656;11.302;2024-02-16T00:35:05;34.17;;;18.75;;
33160;SDS011;19522;45.656;11.302;2024-02-16T00:37:31;28.65;;;18.40;;
33160;SDS011;19522;45.656;11.302;2024-02-16T00:39:56;31.55;;;18.42;;
33160;SDS011;19522;45.656;11.302;2024-02-16T00:42:22;30.38;;;18.05;;
33160;SDS011;19522;45.656;11.302;2024-02-16T00:44:52;27.63;;;17.30;;
33160;SDS011;19522;45.656;11.302;2024-02-16T00:47:18;26.48;;;15.73;;
33160;SDS011;19522;45.656;11.302;2024-02-16T00:49:43;25.00;;;15.73;;
33160;SDS011;19522;45.656;11.302;2024-02-16T00:52:09;29.90;;;16.42;;
33160;SDS011;19522;45.656;11.302;2024-02-16T00:54:35;29.30;;;16.05;;
33160;SDS011;19522;45.656;11.302;2024-02-16T00:57:01;29.33;;;15.60;;
33160;SDS011;19522;45.656;11.302;2024-02-16T00:59:30;28.23;;;16.15;;
33160;SDS011;19522;45.656;11.302;2024-02-16T01:01:56;27.17;;;16.13;;
33160;SDS011;19522;45.656;11.302;2024-02-16T01:04:22;27.48;;;15.90;;
33160;SDS011;19522;45.656;11.302;2024-02-16T01:06:48;24.90;;;15.65;;
33160;SDS011;19522;45.656;11.302;2024-02-16T01:09:14;25.13;;;15.60;;
33160;SDS011;19522;45.656;11.302;2024-02-16T01:11:41;28.33;;;16.80;;
33160;SDS011;19522;45.656;11.302;2024-02-16T01:14:06;28.13;;;16.23;;
33160;SDS011;19522;45.656;11.302;2024-02-16T01:16:32;27.10;;;15.43;;
33160;SDS011;19522;45.656;11.302;2024-02-16T01:18:58;22.60;;;13.05;;
33160;SDS011;19522;45.656;11.302;2024-02-16T01:21:23;26.55;;;16.02;;
33160;SDS011;19522;45.656;11.302;2024-02-16T01:23:49;22.83;;;13.88;;
33160;SDS011;19522;45.656;11.302;2024-02-16T01:26:14;23.60;;;13.85;;
33160;SDS011;19522;45.656;11.302;2024-02-16T01:28:40;25.63;;;13.80;;
33160;SDS011;19522;45.656;11.302;2024-02-16T01:31:06;24.48;;;13.98;;
33160;SDS011;19522;45.656;11.302;2024-02-16T01:33:34;28.50;;;14.07;;
33160;SDS011;19522;45.656;11.302;2024-02-16T01:36:00;22.85;;;13.40;;
33160;SDS011;19522;45.656;11.302;2024-02-16T01:38:28;24.83;;;14.75;;
33160;SDS011;19522;45.656;11.302;2024-02-16T01:40:53;21.38;;;13.00;;
33160;SDS011;19522;45.656;11.302;2024-02-16T01:43:19;24.85;;;13.77;;
33160;SDS011;19522;45.656;11.302;2024-02-16T01:45:45;21.00;;;12.52;;
33160;SDS011;19522;45.656;11.302;2024-02-16T01:48:10;23.33;;;12.57;;
33160;SDS011;19522;45.656;11.302;2024-02-16T01:50:37;18.60;;;11.90;;
33160;SDS011;19522;45.656;11.302;2024-02-16T01:53:03;22.08;;;12.68;;
33160;SDS011;19522;45.656;11.302;2024-02-16T01:55:29;20.58;;;11.85;;
33160;SDS011;19522;45.656;11.302;2024-02-16T01:57:54;19.60;;;11.00;;
33160;SDS011;19522;45.656;11.302;2024-02-16T02:00:20;22.77;;;12.40;;
33160;SDS011;19522;45.656;11.302;2024-02-16T02:02:47;19.52;;;12.05;;
33160;SDS011;19522;45.656;11.302;2024-02-16T02:05:13;18.20;;;10.90;;
33160;SDS011;19522;45.656;11.302;2024-02-16T02:07:40;17.85;;;11.98;;
33160;SDS011;19522;45.656;11.302;2024-02-16T02:10:05;21.80;;;12.20;;
33160;SDS011;19522;45.656;11.302;2024-02-16T02:12:31;23.02;;;11.43;;
33160;SDS011;19522;45.656;11.302;2024-02-16T02:14:57;20.30;;;11.73;;
33160;SDS011;19522;45.656;11.302;2024-02-16T02:17:22;20.02;;;12.23;;
33160;SDS011;19522;45.656;11.302;2024-02-16T02:19:48;17.25;;;10.70;;
33160;SDS011;19522;45.656;11.302;2024-02-16T02:22:17;18.77;;;10.65;;
33160;SDS011;19522;45.656;11.302;2024-02-16T02:24:44;18.92;;;10.52;;
33160;SDS011;19522;45.656;11.302;2024-02-16T02:27:10;18.88;;;11.48;;
33160;SDS011;19522;45.656;11.302;2024-02-16T02:29:38;19.15;;;11.43;;
33160;SDS011;19522;45.656;11.302;2024-02-16T02:32:04;17.95;;;9.80;;
33160;SDS011;19522;45.656;11.302;2024-02-16T02:34:30;15.82;;;9.00;;
33160;SDS011;19522;45.656;11.302;2024-02-16T02:36:55;16.65;;;9.52;;
33160;SDS011;19522;45.656;11.302;2024-02-16T02:39:21;15.07;;;8.93;;
33160;SDS011;19522;45.656;11.302;2024-02-16T02:41:46;19.15;;;9.43;;
33160;SDS011;19522;45.656;11.302;2024-02-16T02:44:12;16.27;;;9.13;;
33160;SDS011;19522;45.656;11.302;2024-02-16T02:46:37;15.20;;;8.95;;
33160;SDS011;19522;45.656;11.302;2024-02-16T02:49:06;18.10;;;9.07;;
33160;SDS011;19522;45.656;11.302;2024-02-16T02:51:31;16.15;;;8.02;;
33160;SDS011;19522;45.656;11.302;2024-02-16T02:54:00;18.15;;;9.02;;
33160;SDS011;19522;45.656;11.302;2024-02-16T02:56:25;17.85;;;9.35;;
33160;SDS011;19522;45.656;11.302;2024-02-16T02:58:50;18.58;;;9.43;;
33160;SDS011;19522;45.656;11.302;2024-02-16T03:01:16;16.35;;;8.65;;
33160;SDS011;19522;45.656;11.302;2024-02-16T03:03:44;15.93;;;9.90;;
33160;SDS011;19522;45.656;11.302;2024-02-16T03:06:10;17.58;;;9.70;;
33160;SDS011;19522;45.656;11.302;2024-02-16T03:08:35;17.92;;;9.15;;
33160;SDS011;19522;45.656;11.302;2024-02-16T03:11:01;14.07;;;7.97;;
33160;SDS011;19522;45.656;11.302;2024-02-16T03:13:27;16.48;;;9.35;;
33160;SDS011;19522;45.656;11.302;2024-02-16T03:15:52;16.33;;;8.95;;
33160;SDS011;19522;45.656;11.302;2024-02-16T03:18:21;15.98;;;8.82;;
33160;SDS011;19522;45.656;11.302;2024-02-16T03:20:47;19.25;;;8.80;;
33160;SDS011;19522;45.656;11.302;2024-02-16T03:23:15;15.45;;;7.85;;
33160;SDS011;19522;45.656;11.302;2024-02-16T03:25:41;13.73;;;8.05;;
33160;SDS011;19522;45.656;11.302;2024-02-16T03:28:11;13.32;;;7.70;;
33160;SDS011;19522;45.656;11.302;2024-02-16T03:30:37;16.33;;;8.50;;
33160;SDS011;19522;45.656;11.302;2024-02-16T03:33:03;14.07;;;8.40;;
33160;SDS011;19522;45.656;11.302;2024-02-16T03:35:32;12.70;;;7.65;;
33160;SDS011;19522;45.656;11.302;2024-02-16T03:37:58;13.85;;;7.72;;
33160;SDS011;19522;45.656;11.302;2024-02-16T03:42:59;14.25;;;7.50;;
33160;SDS011;19522;45.656;11.302;2024-02-16T03:45:25;16.13;;;7.80;;
33160;SDS011;19522;45.656;11.302;2024-02-16T03:47:52;14.68;;;7.65;;
33160;SDS011;19522;45.656;11.302;2024-02-16T03:50:18;15.07;;;8.68;;
33160;SDS011;19522;45.656;11.302;2024-02-16T03:52:44;12.75;;;7.38;;
33160;SDS011;19522;45.656;11.302;2024-02-16T03:55:09;15.32;;;7.63;;
33160;SDS011;19522;45.656;11.302;2024-02-16T03:57:35;17.02;;;7.97;;
33160;SDS011;19522;45.656;11.302;2024-02-16T04:00:01;17.45;;;8.05;;
33160;SDS011;19522;45.656;11.302;2024-02-16T04:02:30;16.20;;;8.27;;
33160;SDS011;19522;45.656;11.302;2024-02-16T04:04:56;15.77;;;8.60;;
33160;SDS011;19522;45.656;11.302;2024-02-16T04:07:22;12.25;;;7.07;;
33160;SDS011;19522;45.656;11.302;2024-02-16T04:09:47;15.68;;;8.00;;
33160;SDS011;19522;45.656;11.302;2024-02-16T04:12:13;16.15;;;8.07;;
33160;SDS011;19522;45.656;11.302;2024-02-16T04:14:39;16.38;;;8.43;;
33160;SDS011;19522;45.656;11.302;2024-02-16T04:17:06;16.95;;;7.90;;
33160;SDS011;19522;45.656;11.302;2024-02-16T04:19:32;15.05;;;7.72;;
33160;SDS011;19522;45.656;11.302;2024-02-16T04:21:57;17.25;;;8.13;;
33160;SDS011;19522;45.656;11.302;2024-02-16T04:24:23;15.82;;;7.63;;
33160;SDS011;19522;45.656;11.302;2024-02-16T04:26:48;15.32;;;8.43;;
33160;SDS011;19522;45.656;11.302;2024-02-16T04:29:14;20.40;;;8.82;;
33160;SDS011;19522;45.656;11.302;2024-02-16T04:31:40;14.52;;;8.10;;
33160;SDS011;19522;45.656;11.302;2024-02-16T04:34:07;18.50;;;9.20;;
33160;SDS011;19522;45.656;11.302;2024-02-16T04:36:36;16.55;;;8.40;;
33160;SDS011;19522;45.656;11.302;2024-02-16T04:39:01;17.38;;;7.80;;
33160;SDS011;19522;45.656;11.302;2024-02-16T04:41:27;17.05;;;8.38;;
33160;SDS011;19522;45.656;11.302;2024-02-16T04:43:53;15.73;;;7.80;;
33160;SDS011;19522;45.656;11.302;2024-02-16T04:46:18;17.85;;;8.15;;
33160;SDS011;19522;45.656;11.302;2024-02-16T04:48:44;15.30;;;7.35;;
33160;SDS011;19522;45.656;11.302;2024-02-16T04:51:10;16.33;;;8.88;;
33160;SDS011;19522;45.656;11.302;2024-02-16T04:53:37;15.45;;;7.93;;
33160;SDS011;19522;45.656;11.302;2024-02-16T04:56:02;16.63;;;8.25;;
33160;SDS011;19522;45.656;11.302;2024-02-16T04:58:29;15.35;;;8.02;;
33160;SDS011;19522;45.656;11.302;2024-02-16T05:00:55;15.77;;;7.20;;
33160;SDS011;19522;45.656;11.302;2024-02-16T05:03:21;14.45;;;8.52;;
33160;SDS011;19522;45.656;11.302;2024-02-16T05:05:47;15.55;;;8.07;;
33160;SDS011;19522;45.656;11.302;2024-02-16T05:08:12;17.20;;;8.77;;
33160;SDS011;19522;45.656;11.302;2024-02-16T05:10:39;15.32;;;7.50;;
33160;SDS011;19522;45.656;11.302;2024-02-16T05:13:05;15.35;;;7.75;;
33160;SDS011;19522;45.656;11.302;2024-02-16T05:15:30;18.35;;;8.32;;
33160;SDS011;19522;45.656;11.302;2024-02-16T05:17:56;18.98;;;7.82;;
33160;SDS011;19522;45.656;11.302;2024-02-16T05:20:23;19.20;;;8.65;;
33160;SDS011;19522;45.656;11.302;2024-02-16T05:22:49;17.40;;;8.57;;
33160;SDS011;19522;45.656;11.302;2024-02-16T05:25:15;16.23;;;8.10;;
33160;SDS011;19522;45.656;11.302;2024-02-16T05:27:43;14.70;;;8.23;;
33160;SDS011;19522;45.656;11.302;2024-02-16T05:30:09;20.17;;;9.05;;
33160;SDS011;19522;45.656;11.302;2024-02-16T05:32:38;17.80;;;9.23;;
33160;SDS011;19522;45.656;11.302;2024-02-16T05:35:04;19.80;;;9.10;;
33160;SDS011;19522;45.656;11.302;2024-02-16T05:37:40;22.17;;;10.40;;
33160;SDS011;19522;45.656;11.302;2024-02-16T05:40:09;16.63;;;9.43;;
33160;SDS011;19522;45.656;11.302;2024-02-16T05:42:50;17.38;;;9.50;;
33160;SDS011;19522;45.656;11.302;2024-02-16T05:45:17;19.25;;;10.20;;
33160;SDS011;19522;45.656;11.302;2024-02-16T05:47:43;25.40;;;12.50;;
33160;SDS011;19522;45.656;11.302;2024-02-16T05:50:12;23.13;;;12.68;;
33160;SDS011;19522;45.656;11.302;2024-02-16T05:52:39;22.35;;;12.15;;
33160;SDS011;19522;45.656;11.302;2024-02-16T05:55:08;18.88;;;9.93;;
33160;SDS011;19522;45.656;11.302;2024-02-16T05:57:34;17.70;;;9.13;;
33160;SDS011;19522;45.656;11.302;2024-02-16T06:00:03;18.65;;;10.48;;
33160;SDS011;19522;45.656;11.302;2024-02-16T06:02:31;25.83;;;12.25;;
33160;SDS011;19522;45.656;11.302;2024-02-16T06:05:03;30.75;;;16.23;;
33160;SDS011;19522;45.656;11.302;2024-02-16T06:07:29;24.63;;;13.40;;
33160;SDS011;19522;45.656;11.302;2024-02-16T06:09:55;18.02;;;11.40;;
33160;SDS011;19522;45.656;11.302;2024-02-16T06:12:21;22.33;;;10.85;;
33160;SDS011;19522;45.656;11.302;2024-02-16T06:14:47;19.02;;;10.32;;
33160;SDS011;19522;45.656;11.302;2024-02-16T06:17:13;25.70;;;12.80;;
33160;SDS011;19522;45.656;11.302;2024-02-16T06:19:42;20.83;;;11.80;;
33160;SDS011;19522;45.656;11.302;2024-02-16T06:22:08;26.88;;;11.98;;
33160;SDS011;19522;45.656;11.302;2024-02-16T06:24:35;23.30;;;11.50;;
33160;SDS011;19522;45.656;11.302;2024-02-16T06:27:01;27.13;;;14.13;;
33160;SDS011;19522;45.656;11.302;2024-02-16T06:29:27;22.73;;;11.07;;
33160;SDS011;19522;45.656;11.302;2024-02-16T06:31:55;18.27;;;10.40;;
33160;SDS011;19522;45.656;11.302;2024-02-16T06:34:21;22.52;;;10.88;;
33160;SDS011;19522;45.656;11.302;2024-02-16T06:36:47;26.77;;;17.83;;
33160;SDS011;19522;45.656;11.302;2024-02-16T06:39:13;26.30;;;15.77;;
33160;SDS011;19522;45.656;11.302;2024-02-16T06:41:42;22.50;;;12.27;;
33160;SDS011;19522;45.656;11.302;2024-02-16T06:44:09;26.45;;;15.13;;
33160;SDS011;19522;45.656;11.302;2024-02-16T06:46:34;25.98;;;14.35;;
33160;SDS011;19522;45.656;11.302;2024-02-16T06:49:00;22.25;;;12.70;;
33160;SDS011;19522;45.656;11.302;2024-02-16T06:51:25;22.73;;;12.52;;
33160;SDS011;19522;45.656;11.302;2024-02-16T06:53:53;22.30;;;11.20;;
33160;SDS011;19522;45.656;11.302;2024-02-16T06:56:19;22.13;;;11.55;;
33160;SDS011;19522;45.656;11.302;2024-02-16T06:58:47;26.42;;;14.52;;
33160;SDS011;19522;45.656;11.302;2024-02-16T07:01:13;25.63;;;15.27;;
33160;SDS011;19522;45.656;11.302;2024-02-16T07:03:39;31.73;;;16.73;;
33160;SDS011;19522;45.656;11.302;2024-02-16T07:06:05;24.30;;;14.13;;
33160;SDS011;19522;45.656;11.302;2024-02-16T07:08:35;22.63;;;12.73;;
33160;SDS011;19522;45.656;11.302;2024-02-16T07:11:03;21.45;;;12.90;;
33160;SDS011;19522;45.656;11.302;2024-02-16T07:13:37;21.40;;;12.38;;
33160;SDS011;19522;45.656;11.302;2024-02-16T07:16:03;22.98;;;13.30;;
33160;SDS011;19522;45.656;11.302;2024-02-16T07:18:29;23.25;;;12.18;;
33160;SDS011;19522;45.656;11.302;2024-02-16T07:20:55;19.70;;;12.27;;
33160;SDS011;19522;45.656;11.302;2024-02-16T07:23:21;23.60;;;13.43;;
33160;SDS011;19522;45.656;11.302;2024-02-16T07:25:47;25.45;;;13.15;;
33160;SDS011;19522;45.656;11.302;2024-02-16T07:28:14;21.92;;;11.30;;
33160;SDS011;19522;45.656;11.302;2024-02-16T07:30:39;23.63;;;11.65;;
33160;SDS011;19522;45.656;11.302;2024-02-16T07:33:06;22.70;;;11.60;;
33160;SDS011;19522;45.656;11.302;2024-02-16T07:35:34;23.88;;;13.05;;
33160;SDS011;19522;45.656;11.302;2024-02-16T07:38:01;20.38;;;11.60;;
33160;SDS011;19522;45.656;11.302;2024-02-16T07:40:27;30.85;;;18.17;;
33160;SDS011;19522;45.656;11.302;2024-02-16T07:42:53;22.92;;;14.30;;
33160;SDS011;19522;45.656;11.302;2024-02-16T07:45:18;28.45;;;16.67;;
33160;SDS011;19522;45.656;11.302;2024-02-16T07:47:45;24.10;;;13.00;;
33160;SDS011;19522;45.656;11.302;2024-02-16T07:50:11;26.45;;;12.10;;
33160;SDS011;19522;45.656;11.302;2024-02-16T07:52:37;22.48;;;11.90;;
33160;SDS011;19522;45.656;11.302;2024-02-16T07:55:04;23.35;;;11.63;;
33160;SDS011;19522;45.656;11.302;2024-02-16T07:57:30;21.70;;;12.25;;
33160;SDS011;19522;45.656;11.302;2024-02-16T07:59:56;20.70;;;12.30;;
33160;SDS011;19522;45.656;11.302;2024-02-16T08:02:22;17.67;;;12.27;;
33160;SDS011;19522;45.656;11.302;2024-02-16T08:04:48;25.33;;;15.02;;
33160;SDS011;19522;45.656;11.302;2024-02-16T08:07:14;28.73;;;17.10;;
33160;SDS011;19522;45.656;11.302;2024-02-16T08:09:40;29.55;;;16.63;;
33160;SDS011;19522;45.656;11.302;2024-02-16T08:12:09;22.77;;;13.45;;
33160;SDS011;19522;45.656;11.302;2024-02-16T08:14:34;26.75;;;14.15;;
33160;SDS011;19522;45.656;11.302;2024-02-16T08:17:00;23.23;;;14.50;;
33160;SDS011;19522;45.656;11.302;2024-02-16T08:19:31;34.67;;;18.95;;
33160;SDS011;19522;45.656;11.302;2024-02-16T08:21:59;31.10;;;17.50;;
33160;SDS011;19522;45.656;11.302;2024-02-16T08:24:25;33.97;;;19.90;;
33160;SDS011;19522;45.656;11.302;2024-02-16T08:26:51;48.17;;;26.92;;
33160;SDS011;19522;45.656;11.302;2024-02-16T08:29:20;40.53;;;20.33;;
33160;SDS011;19522;45.656;11.302;2024-02-16T08:31:47;35.05;;;18.90;;
33160;SDS011;19522;45.656;11.302;2024-02-16T08:34:15;27.05;;;17.00;;
33160;SDS011;19522;45.656;11.302;2024-02-16T08:36:44;25.52;;;14.43;;
33160;SDS011;19522;45.656;11.302;2024-02-16T08:39:13;24.17;;;14.15;;
33160;SDS011;19522;45.656;11.302;2024-02-16T08:41:42;25.95;;;13.60;;
33160;SDS011;19522;45.656;11.302;2024-02-16T08:44:14;27.73;;;13.48;;
33160;SDS011;19522;45.656;11.302;2024-02-16T08:46:39;20.55;;;11.90;;
33160;SDS011;19522;45.656;11.302;2024-02-16T08:49:05;22.98;;;13.80;;
33160;SDS011;19522;45.656;11.302;2024-02-16T08:51:32;23.40;;;14.10;;
33160;SDS011;19522;45.656;11.302;2024-02-16T08:53:58;31.98;;;19.05;;
33160;SDS011;19522;45.656;11.302;2024-02-16T08:56:24;30.00;;;20.13;;
33160;SDS011;19522;45.656;11.302;2024-02-16T08:58:49;31.88;;;19.75;;
33160;SDS011;19522;45.656;11.302;2024-02-16T09:01:15;33.10;;;20.63;;
33160;SDS011;19522;45.656;11.302;2024-02-16T09:03:41;28.25;;;18.15;;
33160;SDS011;19522;45.656;11.302;2024-02-16T09:06:07;28.25;;;16.75;;
33160;SDS011;19522;45.656;11.302;2024-02-16T09:08:33;23.90;;;14.80;;
33160;SDS011;19522;45.656;11.302;2024-02-16T09:11:03;24.63;;;14.73;;
33160;SDS011;19522;45.656;11.302;2024-02-16T09:13:32;25.40;;;13.00;;
33160;SDS011;19522;45.656;11.302;2024-02-16T09:15:58;22.63;;;12.90;;
33160;SDS011;19522;45.656;11.302;2024-02-16T09:18:23;30.33;;;15.88;;
33160;SDS011;19522;45.656;11.302;2024-02-16T09:20:49;23.73;;;12.88;;
33160;SDS011;19522;45.656;11.302;2024-02-16T09:23:14;22.77;;;13.15;;
33160;SDS011;19522;45.656;11.302;2024-02-16T09:25:40;24.40;;;13.70;;
33160;SDS011;19522;45.656;11.302;2024-02-16T09:28:06;21.08;;;12.30;;
33160;SDS011;19522;45.656;11.302;2024-02-16T09:30:32;24.80;;;12.50;;
33160;SDS011;19522;45.656;11.302;2024-02-16T09:32:58;24.10;;;12.75;;
33160;SDS011;19522;45.656;11.302;2024-02-16T09:35:26;21.45;;;12.27;;
33160;SDS011;19522;45.656;11.302;2024-02-16T09:37:52;30.33;;;16.58;;
33160;SDS011;19522;45.656;11.302;2024-02-16T09:40:17;31.40;;;20.17;;
33160;SDS011;19522;45.656;11.302;2024-02-16T09:42:47;39.00;;;21.92;;
33160;SDS011;19522;45.656;11.302;2024-02-16T09:45:17;30.33;;;17.70;;
33160;SDS011;19522;45.656;11.302;2024-02-16T09:47:43;32.90;;;18.63;;
33160;SDS011;19522;45.656;11.302;2024-02-16T09:50:11;37.90;;;22.27;;
33160;SDS011;19522;45.656;11.302;2024-02-16T09:52:37;38.75;;;20.15;;
33160;SDS011;19522;45.656;11.302;2024-02-16T09:55:03;41.95;;;23.55;;
33160;SDS011;19522;45.656;11.302;2024-02-16T09:57:32;38.42;;;21.60;;
33160;SDS011;19522;45.656;11.302;2024-02-16T09:59:57;42.40;;;25.92;;
33160;SDS011;19522;45.656;11.302;2024-02-16T10:02:23;48.13;;;29.33;;
33160;SDS011;19522;45.656;11.302;2024-02-16T10:04:48;51.60;;;30.67;;
33160;SDS011;19522;45.656;11.302;2024-02-16T10:07:14;63.53;;;36.42;;
33160;SDS011;19522;45.656;11.302;2024-02-16T10:09:40;52.92;;;31.23;;
33160;SDS011;19522;45.656;11.302;2024-02-16T10:12:06;55.10;;;32.28;;
33160;SDS011;19522;45.656;11.302;2024-02-16T10:14:32;58.47;;;34.55;;
33160;SDS011;19522;45.656;11.302;2024-02-16T10:17:01;57.47;;;34.10;;
33160;SDS011;19522;45.656;11.302;2024-02-16T10:19:28;53.55;;;32.78;;
33160;SDS011;19522;45.656;11.302;2024-02-16T10:22:10;53.97;;;31.85;;
33160;SDS011;19522;45.656;11.302;2024-02-16T10:24:36;54.30;;;33.75;;
33160;SDS011;19522;45.656;11.302;2024-02-16T10:27:05;56.15;;;34.33;;
33160;SDS011;19522;45.656;11.302;2024-02-16T10:29:34;55.65;;;35.10;;
33160;SDS011;19522;45.656;11.302;2024-02-16T10:32:01;58.55;;;37.17;;
33160;SDS011;19522;45.656;11.302;2024-02-16T10:34:27;65.88;;;37.97;;
33160;SDS011;19522;45.656;11.302;2024-02-16T10:36:54;61.28;;;39.65;;
33160;SDS011;19522;45.656;11.302;2024-02-16T10:39:22;66.13;;;40.33;;
33160;SDS011;19522;45.656;11.302;2024-02-16T10:41:49;69.85;;;42.75;;
33160;SDS011;19522;45.656;11.302;2024-02-16T10:44:17;64.97;;;37.92;;
33160;SDS011;19522;45.656;11.302;2024-02-16T10:46:42;66.20;;;40.35;;
33160;SDS011;19522;45.656;11.302;2024-02-16T10:49:08;68.43;;;43.72;;
33160;SDS011;19522;45.656;11.302;2024-02-16T10:51:47;68.63;;;43.90;;
33160;SDS011;19522;45.656;11.302;2024-02-16T10:54:17;68.25;;;42.83;;
33160;SDS011;19522;45.656;11.302;2024-02-16T10:56:46;70.50;;;42.30;;
33160;SDS011;19522;45.656;11.302;2024-02-16T10:59:12;64.97;;;40.17;;
33160;SDS011;19522;45.656;11.302;2024-02-16T11:01:38;60.35;;;34.88;;
33160;SDS011;19522;45.656;11.302;2024-02-16T11:04:06;56.05;;;35.53;;
33160;SDS011;19522;45.656;11.302;2024-02-16T11:09:11;55.60;;;33.90;;
33160;SDS011;19522;45.656;11.302;2024-02-16T11:11:54;60.20;;;34.92;;
33160;SDS011;19522;45.656;11.302;2024-02-16T11:14:41;56.60;;;32.65;;
33160;SDS011;19522;45.656;11.302;2024-02-16T11:17:11;56.05;;;32.13;;
33160;SDS011;19522;45.656;11.302;2024-02-16T11:19:43;66.90;;;39.35;;
33160;SDS011;19522;45.656;11.302;2024-02-16T11:22:10;56.08;;;33.63;;
33160;SDS011;19522;45.656;11.302;2024-02-16T11:24:42;56.13;;;31.77;;
33160;SDS011;19522;45.656;11.302;2024-02-16T11:27:12;43.45;;;24.42;;
33160;SDS011;19522;45.656;11.302;2024-02-16T11:29:40;42.78;;;23.15;;
33160;SDS011;19522;45.656;11.302;2024-02-16T11:32:06;44.78;;;25.08;;
33160;SDS011;19522;45.656;11.302;2024-02-16T11:34:33;45.05;;;24.10;;
33160;SDS011;19522;45.656;11.302;2024-02-16T11:37:00;37.90;;;17.10;;
33160;SDS011;19522;45.656;11.302;2024-02-16T11:39:27;37.08;;;18.60;;
33160;SDS011;19522;45.656;11.302;2024-02-16T11:42:11;36.63;;;21.90;;
33160;SDS011;19522;45.656;11.302;2024-02-16T11:44:38;40.63;;;24.08;;
33160;SDS011;19522;45.656;11.302;2024-02-16T11:47:05;46.30;;;26.00;;
33160;SDS011;19522;45.656;11.302;2024-02-16T11:49:35;42.70;;;25.98;;
33160;SDS011;19522;45.656;11.302;2024-02-16T11:52:03;33.50;;;18.85;;
33160;SDS011;19522;45.656;11.302;2024-02-16T11:54:29;33.30;;;20.15;;
33160;SDS011;19522;45.656;11.302;2024-02-16T11:56:56;35.47;;;19.02;;
33160;SDS011;19522;45.656;11.302;2024-02-16T11:59:22;38.05;;;23.30;;
33160;SDS011;19522;45.656;11.302;2024-02-16T12:01:51;34.95;;;20.73;;
33160;SDS011;19522;45.656;11.302;2024-02-16T12:04:27;42.67;;;25.45;;
33160;SDS011;19522;45.656;11.302;2024-02-16T12:06:58;31.42;;;18.48;;
33160;SDS011;19522;45.656;11.302;2024-02-16T12:09:28;29.77;;;17.83;;
33160;SDS011;19522;45.656;11.302;2024-02-16T12:11:55;40.53;;;24.90;;
33160;SDS011;19522;45.656;11.302;2024-02-16T12:14:21;37.60;;;23.80;;
33160;SDS011;19522;45.656;11.302;2024-02-16T12:16:51;36.08;;;22.92;;
33160;SDS011;19522;45.656;11.302;2024-02-16T12:19:20;41.25;;;26.58;;
33160;SDS011;19522;45.656;11.302;2024-02-16T12:21:57;45.28;;;28.20;;
33160;SDS011;19522;45.656;11.302;2024-02-16T12:24:22;33.53;;;21.67;;
33160;SDS011;19522;45.656;11.302;2024-02-16T12:26:49;41.50;;;26.70;;
33160;SDS011;19522;45.656;11.302;2024-02-16T12:29:14;43.58;;;25.27;;
33160;SDS011;19522;45.656;11.302;2024-02-16T12:31:44;43.10;;;26.20;;
33160;SDS011;19522;45.656;11.302;2024-02-16T12:34:10;38.45;;;23.40;;
33160;SDS011;19522;45.656;11.302;2024-02-16T12:36:40;35.47;;;22.85;;
33160;SDS011;19522;45.656;11.302;2024-02-16T12:39:07;32.63;;;20.38;;
33160;SDS011;19522;45.656;11.302;2024-02-16T12:41:34;33.47;;;19.63;;
33160;SDS011;19522;45.656;11.302;2024-02-16T12:44:01;32.80;;;18.90;;
33160;SDS011;19522;45.656;11.302;2024-02-16T12:46:27;33.30;;;19.90;;
33160;SDS011;19522;45.656;11.302;2024-02-16T12:48:53;36.60;;;20.45;;
33160;SDS011;19522;45.656;11.302;2024-02-16T12:51:19;27.92;;;17.60;;
33160;SDS011;19522;45.656;11.302;2024-02-16T12:53:45;37.65;;;20.75;;
33160;SDS011;19522;45.656;11.302;2024-02-16T12:56:11;34.83;;;21.38;;
33160;SDS011;19522;45.656;11.302;2024-02-16T12:58:37;31.02;;;19.90;;
33160;SDS011;19522;45.656;11.302;2024-02-16T13:01:03;33.72;;;20.33;;
33160;SDS011;19522;45.656;11.302;2024-02-16T13:03:35;37.78;;;22.42;;
33160;SDS011;19522;45.656;11.302;2024-02-16T13:06:02;42.33;;;26.63;;
33160;SDS011;19522;45.656;11.302;2024-02-16T13:08:28;45.58;;;27.70;;
33160;SDS011;19522;45.656;11.302;2024-02-16T13:10:54;42.78;;;26.27;;
33160;SDS011;19522;45.656;11.302;2024-02-16T13:13:23;42.88;;;26.27;;
33160;SDS011;19522;45.656;11.302;2024-02-16T13:15:50;42.55;;;25.73;;
33160;SDS011;19522;45.656;11.302;2024-02-16T13:18:16;38.55;;;27.60;;
33160;SDS011;19522;45.656;11.302;2024-02-16T13:20:45;47.88;;;30.23;;
33160;SDS011;19522;45.656;11.302;2024-02-16T13:23:10;44.22;;;27.48;;
33160;SDS011;19522;45.656;11.302;2024-02-16T13:25:36;45.88;;;31.27;;
33160;SDS011;19522;45.656;11.302;2024-02-16T13:28:02;44.03;;;28.23;;
33160;SDS011;19522;45.656;11.302;2024-02-16T13:30:28;50.25;;;33.42;;
33160;SDS011;19522;45.656;11.302;2024-02-16T13:32:54;51.08;;;32.55;;
33160;SDS011;19522;45.656;11.302;2024-02-16T13:35:19;52.05;;;33.45;;
33160;SDS011;19522;45.656;11.302;2024-02-16T13:37:45;54.17;;;34.65;;
33160;SDS011;19522;45.656;11.302;2024-02-16T13:40:11;51.92;;;33.90;;
33160;SDS011;19522;45.656;11.302;2024-02-16T13:42:38;53.17;;;34.78;;
33160;SDS011;19522;45.656;11.302;2024-02-16T13:45:04;57.20;;;37.42;;
33160;SDS011;19522;45.656;11.302;2024-02-16T13:47:31;57.03;;;38.53;;
33160;SDS011;19522;45.656;11.302;2024-02-16T13:49:56;54.97;;;37.72;;
33160;SDS011;19522;45.656;11.302;2024-02-16T13:52:25;61.38;;;39.90;;
33160;SDS011;19522;45.656;11.302;2024-02-16T13:54:56;61.95;;;41.72;;
33160;SDS011;19522;45.656;11.302;2024-02-16T13:57:24;61.70;;;41.53;;
33160;SDS011;19522;45.656;11.302;2024-02-16T13:59:50;67.70;;;41.90;;
33160;SDS011;19522;45.656;11.302;2024-02-16T14:02:16;67.53;;;45.17;;
33160;SDS011;19522;45.656;11.302;2024-02-16T14:04:42;71.47;;;44.92;;
33160;SDS011;19522;45.656;11.302;2024-02-16T14:07:07;69.88;;;45.92;;
33160;SDS011;19522;45.656;11.302;2024-02-16T14:09:34;72.82;;;47.33;;
33160;SDS011;19522;45.656;11.302;2024-02-16T14:12:00;70.70;;;46.05;;
33160;SDS011;19522;45.656;11.302;2024-02-16T14:14:25;67.43;;;44.28;;